Time;durP1;ratioP1;P1;durP2;ratioP2;P2;SDS_P1;SDS_P2;PMS_P1;PMS_P2;Temp;Humidity;BMP_temperature;BMP_pressure;BME280_temperature;BME280_humidity;BME280_pressure;Samples;Min_cycle;Max_cycle;Signal;HPM_P1;HPM_P2
2022/07/29 00:01:47;;;;;;;;;;;;;;;27.90;34.19;98655.88;4471615;32;19980;-87
2022/07/29 00:04:12;;;;;;;;;;;;;;;27.82;33.98;98654.13;4470472;32;20005;-88
2022/07/29 00:06:37;;;;;;;;;;;;;;;27.80;33.98;98650.78;4471561;32;19968;-88
2022/07/29 00:09:02;;;;;;;;;;;;;;;27.72;34.18;98654.47;4471543;32;19980;-88
2022/07/29 00:11:28;;;;;;;;;;;;;;;27.76;34.39;98654.91;4471580;32;19987;-87
2022/07/29 00:13:53;;;;;;;;;;;;;;;27.82;34.34;98652.25;4470186;32;19979;-89
2022/07/29 00:16:18;;;;;;;;;;;;;;;27.84;34.09;98658.28;4471447;32;20420;-90
2022/07/29 00:18:44;;;;;;;;;;;;;;;27.83;34.08;98656.62;4475517;32;19984;-90
2022/07/29 00:21:09;;;;;;;;;;;;;;;27.84;34.23;98654.75;4475361;32;20320;-88
2022/07/29 00:23:34;;;;;;;;;;;;;;;27.85;34.18;98649.16;4476606;32;20020;-89
2022/07/29 00:25:59;;;;;;;;;;;;;;;27.69;34.42;98660.28;4476428;32;20255;-89
2022/07/29 00:28:25;;;;;;;;;;;;;;;27.81;34.20;98649.72;4474937;32;19984;-88
2022/07/29 00:30:50;;;;;;;;;;;;;;;27.74;34.41;98651.53;4476198;32;20330;-88
2022/07/29 00:33:15;;;;;;;;;;;;;;;27.82;34.28;98656.84;4476188;32;20014;-88
2022/07/29 00:35:43;;;;;;;;;;;;;;;27.84;34.39;98661.00;4476141;32;20013;-89
2022/07/29 00:38:09;;;;;;;;;;;;;;;27.52;34.79;98657.00;4476136;32;19995;-88
2022/07/29 00:40:35;;;;;;;;;;;;;;;27.68;34.56;98653.19;4476066;32;20332;-87
2022/07/29 00:43:01;;;;;;;;;;;;;;;27.67;34.80;98650.69;4475984;32;19984;-87
2022/07/29 00:45:26;;;;;;;;;;;;;;;27.74;34.86;98657.81;4476054;32;20283;-87
2022/07/29 00:47:52;;;;;;;;;;;;;;;27.59;34.78;98654.38;4475961;32;19991;-87
2022/07/29 00:50:17;;;;;;;;;;;;;;;27.68;34.69;98653.19;4476050;32;20017;-87
2022/07/29 00:52:42;;;;;;;;;;;;;;;27.71;34.85;98651.97;4474734;32;19968;-88
2022/07/29 00:55:09;;;;;;;;;;;;;;;27.70;34.99;98648.44;4474534;32;20311;-87
2022/07/29 00:57:34;;;;;;;;;;;;;;;27.69;34.47;98652.16;4474609;32;19992;-87
2022/07/29 01:00:00;;;;;;;;;;;;;;;27.38;35.05;98653.38;4475959;32;19968;-87
2022/07/29 01:02:25;;;;;;;;;;;;;;;27.41;35.07;98655.69;4475710;32;20040;-87
2022/07/29 01:04:50;;;;;;;;;;;;;;;27.30;35.06;98649.97;4475738;32;19972;-87
2022/07/29 01:07:16;;;;;;;;;;;;;;;27.40;34.88;98645.06;4474353;32;20019;-87
2022/07/29 01:09:41;;;;;;;;;;;;;;;27.53;34.72;98649.75;4475633;32;19998;-87
2022/07/29 01:12:06;;;;;;;;;;;;;;;27.43;34.98;98647.38;4475695;32;19979;-86
2022/07/29 01:14:32;;;;;;;;;;;;;;;27.34;35.04;98643.16;4475459;32;19972;-87
2022/07/29 01:17:05;;;;;;;;;;;;;;;27.49;34.75;98637.63;4475601;32;20324;-87
2022/07/29 01:19:41;;;;;;;;;;;;;;;27.37;34.96;98640.03;4475647;32;20024;-86
2022/07/29 01:22:25;;;;;;;;;;;;;;;27.34;34.98;98645.84;4474297;32;19986;-87
2022/07/29 01:24:51;;;;;;;;;;;;;;;27.48;34.96;98644.91;4475617;32;19964;-87
2022/07/29 01:27:16;;;;;;;;;;;;;;;27.45;34.92;98646.16;4475300;32;19991;-87
2022/07/29 01:29:43;;;;;;;;;;;;;;;27.31;35.22;98641.66;4471844;32;20001;-87
2022/07/29 01:32:10;;;;;;;;;;;;;;;27.44;35.12;98643.63;4471401;32;19976;-86
2022/07/29 01:34:41;;;;;;;;;;;;;;;27.46;35.11;98641.56;4471310;32;20314;-86
2022/07/29 01:37:09;;;;;;;;;;;;;;;27.44;35.06;98640.94;4458308;32;20038;-87
2022/07/29 01:39:35;;;;;;;;;;;;;;;27.50;35.12;98640.12;4472490;32;20021;-88
2022/07/29 01:42:15;;;;;;;;;;;;;;;27.52;34.87;98638.06;4472466;32;19988;-88
2022/07/29 01:44:46;;;;;;;;;;;;;;;27.45;35.00;98634.50;4477605;32;19995;-87
2022/07/29 01:47:12;;;;;;;;;;;;;;;27.44;35.05;98640.94;4486907;32;19991;-87
2022/07/29 01:49:41;;;;;;;;;;;;;;;27.48;34.95;98646.78;4486897;32;20358;-88
2022/07/29 01:52:11;;;;;;;;;;;;;;;27.44;35.09;98636.34;4488067;31;19987;-86
2022/07/29 01:54:48;;;;;;;;;;;;;;;27.44;35.13;98633.62;4486806;32;19987;-86
2022/07/29 01:57:14;;;;;;;;;;;;;;;27.25;35.60;98635.19;4488035;31;19984;-85
2022/07/29 01:59:40;;;;;;;;;;;;;;;27.37;35.40;98632.78;4486660;32;20268;-86
2022/07/29 02:02:08;;;;;;;;;;;;;;;26.92;36.24;98631.28;4473693;32;20307;-85
2022/07/29 02:04:33;;;;;;;;;;;;;;;27.15;35.83;98629.22;4486824;32;20008;-86
2022/07/29 02:07:06;;;;;;;;;;;;;;;27.20;35.91;98615.94;4486702;32;19983;-88
2022/07/29 02:09:32;;;;;;;;;;;;;;;27.23;35.99;98625.53;4486776;32;20050;-88
2022/07/29 02:12:01;;;;;;;;;;;;;;;27.28;35.83;98627.69;4486856;32;19979;-87
2022/07/29 02:14:26;;;;;;;;;;;;;;;27.31;35.59;98630.81;4486430;32;20323;-87
2022/07/29 02:16:53;;;;;;;;;;;;;;;27.35;35.75;98628.56;4484889;32;20033;-87
2022/07/29 02:19:18;;;;;;;;;;;;;;;27.28;36.02;98627.69;4484731;32;20002;-88
2022/07/29 02:21:44;;;;;;;;;;;;;;;27.12;35.93;98623.34;4483310;32;20308;-88
2022/07/29 02:24:09;;;;;;;;;;;;;;;27.26;35.70;98619.78;4486670;32;20006;-88
2022/07/29 02:26:35;;;;;;;;;;;;;;;27.31;35.64;98620.00;4486707;32;19980;-89
2022/07/29 02:29:00;;;;;;;;;;;;;;;27.07;35.86;98615.84;4486666;32;19984;-88
2022/07/29 02:31:28;;;;;;;;;;;;;;;27.20;35.69;98624.06;4487623;32;20024;-87
2022/07/29 02:33:53;;;;;;;;;;;;;;;27.23;35.68;98618.25;4486395;32;20027;-87
2022/07/29 02:36:19;;;;;;;;;;;;;;;27.29;35.74;98613.13;4488110;31;20014;-87
2022/07/29 02:38:50;;;;;;;;;;;;;;;27.16;35.95;98622.78;4486928;32;20338;-87
2022/07/29 02:41:19;;;;;;;;;;;;;;;27.18;35.87;98622.59;4485921;32;20075;-88
2022/07/29 02:43:45;;;;;;;;;;;;;;;27.00;36.06;98614.91;4487620;32;20282;-85
2022/07/29 02:46:14;;;;;;;;;;;;;;;27.06;36.01;98622.25;4487808;31;20035;-88
2022/07/29 02:48:48;;;;;;;;;;;;;;;27.10;35.77;98610.06;4486521;32;20000;-89
2022/07/29 02:51:18;;;;;;;;;;;;;;;26.86;36.27;98624.78;4487623;31;19972;-89
2022/07/29 02:53:43;;;;;;;;;;;;;;;27.02;36.18;98615.56;4486521;32;19975;-89
2022/07/29 02:56:10;;;;;;;;;;;;;;;27.11;36.33;98610.88;4487566;32;20217;-89
2022/07/29 02:58:39;;;;;;;;;;;;;;;26.65;36.84;98621.00;4487168;31;19996;-88
2022/07/29 03:01:08;;;;;;;;;;;;;;;26.86;36.31;98625.59;4479424;31;19983;-87
2022/07/29 03:03:35;;;;;;;;;;;;;;;26.98;36.22;98620.53;4463905;32;19987;-89
2022/07/29 03:06:01;;;;;;;;;;;;;;;26.96;36.31;98610.94;4471922;32;19988;-88
2022/07/29 03:08:26;;;;;;;;;;;;;;;27.01;36.51;98614.75;4471791;32;20027;-88
2022/07/29 03:10:51;;;;;;;;;;;;;;;27.05;36.53;98613.31;4469510;32;20256;-88
2022/07/29 03:13:17;;;;;;;;;;;;;;;27.04;36.37;98608.97;4472001;32;19974;-88
2022/07/29 03:15:43;;;;;;;;;;;;;;;26.99;36.43;98613.25;4471516;32;19987;-88
2022/07/29 03:18:08;;;;;;;;;;;;;;;27.03;36.36;98617.25;4472090;32;20002;-89
2022/07/29 03:20:33;;;;;;;;;;;;;;;26.95;36.18;98609.28;4472027;32;20003;-89
2022/07/29 03:22:59;;;;;;;;;;;;;;;26.81;36.62;98625.38;4482015;32;20266;-87
2022/07/29 03:25:24;;;;;;;;;;;;;;;26.82;36.62;98616.22;4484881;32;19988;-86
2022/07/29 03:27:50;;;;;;;;;;;;;;;26.93;36.56;98617.59;4484755;32;20021;-86
2022/07/29 03:30:15;;;;;;;;;;;;;;;26.98;36.37;98615.13;4486142;32;20017;-87
2022/07/29 03:32:41;;;;;;;;;;;;;;;26.98;36.41;98617.81;4486124;31;19976;-86
2022/07/29 03:35:06;;;;;;;;;;;;;;;27.03;36.55;98614.53;4486096;31;19976;-86
2022/07/29 03:37:33;;;;;;;;;;;;;;;27.11;36.50;98621.69;4484816;32;20033;-86
2022/07/29 03:39:58;;;;;;;;;;;;;;;27.16;36.45;98620.06;4485872;31;19988;-85
2022/07/29 03:42:28;;;;;;;;;;;;;;;27.21;36.64;98609.50;4486092;32;19984;-83
2022/07/29 03:44:54;;;;;;;;;;;;;;;27.22;36.55;98618.47;4468736;32;19985;-84
2022/07/29 03:47:22;;;;;;;;;;;;;;;27.23;36.53;98620.94;4469135;32;19994;-87
2022/07/29 03:49:47;;;;;;;;;;;;;;;27.29;35.87;98613.13;4457021;32;20027;-86
2022/07/29 03:52:12;;;;;;;;;;;;;;;27.32;35.92;98621.69;4454416;32;20270;-86
2022/07/29 03:54:38;;;;;;;;;;;;;;;26.98;36.06;98612.41;4470131;32;19969;-90
2022/07/29 03:57:03;;;;;;;;;;;;;;;27.20;35.59;98624.06;4470209;32;19987;-92
2022/07/29 03:59:28;;;;;;;;;;;;;;;27.00;36.22;98631.16;4456153;32;19961;-88
2022/07/29 04:01:54;;;;;;;;;;;;;;;26.86;36.17;98631.00;4471469;32;19994;-88
2022/07/29 04:04:19;;;;;;;;;;;;;;;27.19;35.76;98632.38;4457239;32;19976;-88
2022/07/29 04:06:45;;;;;;;;;;;;;;;27.25;35.62;98632.47;4457152;32;20378;-86
2022/07/29 04:09:11;;;;;;;;;;;;;;;27.23;35.93;98631.78;4471407;32;19968;-86
2022/07/29 04:11:37;;;;;;;;;;;;;;;27.07;36.05;98632.06;4471112;32;19988;-86
2022/07/29 04:14:02;;;;;;;;;;;;;;;27.18;35.78;98626.12;4443979;32;20003;-86
2022/07/29 04:16:27;;;;;;;;;;;;;;;27.49;36.07;98627.66;4471207;32;19994;-86
2022/07/29 04:18:53;;;;;;;;;;;;;;;27.63;35.85;98631.28;4457069;32;20300;-88
2022/07/29 04:21:18;;;;;;;;;;;;;;;27.63;35.63;98634.00;4471132;32;19971;-90
2022/07/29 04:23:45;;;;;;;;;;;;;;;27.76;35.34;98634.09;4471072;32;19983;-90
2022/07/29 04:26:10;;;;;;;;;;;;;;;27.86;35.02;98633.75;4471172;32;20002;-90
2022/07/29 04:28:36;;;;;;;;;;;;;;;27.90;34.94;98632.34;4456770;32;19976;-89
2022/07/29 04:31:01;;;;;;;;;;;;;;;27.71;35.55;98631.13;4470862;32;19971;-90
2022/07/29 04:33:26;;;;;;;;;;;;;;;27.78;34.88;98634.72;4470832;32;19972;-88
2022/07/29 04:35:52;;;;;;;;;;;;;;;28.09;34.87;98629.94;4456788;32;20311;-89
2022/07/29 04:38:17;;;;;;;;;;;;;;;28.25;34.60;98632.31;4470879;32;20258;-90
2022/07/29 04:40:42;;;;;;;;;;;;;;;28.10;34.87;98626.19;4472770;32;19972;-87
2022/07/29 04:43:07;;;;;;;;;;;;;;;28.15;34.65;98626.44;4459275;32;20012;-87
2022/07/29 04:45:33;;;;;;;;;;;;;;;28.50;33.95;98626.38;4472470;32;20315;-93
2022/07/29 04:47:58;;;;;;;;;;;;;;;28.70;33.39;98627.28;4486359;32;20031;-92
2022/07/29 04:50:23;;;;;;;;;;;;;;;28.82;33.18;98627.53;4486446;32;19968;-91
2022/07/29 04:52:49;;;;;;;;;;;;;;;28.80;33.65;98629.59;4486251;32;20001;-95
2022/07/29 04:55:14;;;;;;;;;;;;;;;28.70;32.99;98627.28;4486242;32;19976;-95
2022/07/29 04:57:40;;;;;;;;;;;;;;;28.72;33.16;98627.91;4455934;32;19986;-93
2022/07/29 05:00:06;;;;;;;;;;;;;;;29.00;32.89;98629.66;4471336;32;19976;-91
2022/07/29 05:02:31;;;;;;;;;;;;;;;28.87;32.85;98630.44;4474251;32;20725;-94
2022/07/29 05:04:56;;;;;;;;;;;;;;;29.03;32.56;98631.94;4486261;32;19999;-92
2022/07/29 05:07:22;;;;;;;;;;;;;;;28.46;33.62;98633.22;4478950;32;19972;-96
2022/07/29 05:09:47;;;;;;;;;;;;;;;29.06;32.99;98634.22;4459278;32;19965;-82
2022/07/29 05:12:12;;;;;;;;;;;;;;;29.28;32.19;98629.47;4472676;32;20015;-82
2022/07/29 05:14:38;;;;;;;;;;;;;;;29.61;31.86;98634.06;4481509;32;20287;-88
2022/07/29 05:17:03;;;;;;;;;;;;;;;28.92;33.25;98644.22;4488267;32;19972;-86
2022/07/29 05:19:28;;;;;;;;;;;;;;;29.14;32.38;98633.22;4488282;32;20235;-91
2022/07/29 05:21:54;;;;;;;;;;;;;;;29.40;32.39;98635.13;4485067;32;20028;-83
2022/07/29 05:24:19;;;;;;;;;;;;;;;29.17;32.60;98638.25;4486486;32;20043;-83
2022/07/29 05:26:44;;;;;;;;;;;;;;;29.54;32.23;98628.63;4487146;32;20013;-83
2022/07/29 05:29:11;;;;;;;;;;;;;;;29.73;32.18;98634.31;4487031;32;19971;-83
2022/07/29 05:31:36;;;;;;;;;;;;;;;29.83;31.53;98634.69;4487081;32;19979;-83
2022/07/29 05:34:01;;;;;;;;;;;;;;;29.89;31.36;98638.44;4487090;32;20275;-83
2022/07/29 05:36:26;;;;;;;;;;;;;;;30.09;31.09;98630.22;4487202;32;19984;-83
2022/07/29 05:38:52;;;;;;;;;;;;;;;30.20;30.56;98629.56;4487232;32;19990;-83
2022/07/29 05:41:17;;;;;;;;;;;;;;;30.18;30.94;98635.22;4488198;32;19986;-83
2022/07/29 05:43:43;;;;;;;;;;;;;;;30.07;31.02;98632.31;4488242;32;19984;-83
2022/07/29 05:46:08;;;;;;;;;;;;;;;30.28;31.01;98636.66;4488155;32;20008;-83
2022/07/29 05:48:33;;;;;;;;;;;;;;;30.26;31.24;98636.84;4488185;32;19968;-83
2022/07/29 05:50:58;;;;;;;;;;;;;;;30.45;30.57;98637.88;4488138;32;19995;-83
2022/07/29 05:53:24;;;;;;;;;;;;;;;30.57;30.19;98638.00;4487999;32;20017;-83
2022/07/29 05:55:51;;;;;;;;;;;;;;;30.23;30.34;98648.19;4488020;32;19968;-83
2022/07/29 05:58:16;;;;;;;;;;;;;;;30.19;31.01;98646.91;4473691;32;19994;-82
2022/07/29 06:00:42;;;;;;;;;;;;;;;30.31;30.50;98639.81;4473647;32;19984;-82
2022/07/29 06:03:07;;;;;;;;;;;;;;;30.60;29.84;98644.87;4473788;32;19984;-82
2022/07/29 06:05:32;;;;;;;;;;;;;;;30.76;29.66;98639.78;4487957;32;20023;-83
2022/07/29 06:07:57;;;;;;;;;;;;;;;30.61;29.52;98643.84;4487953;32;19982;-82
2022/07/29 06:10:24;;;;;;;;;;;;;;;30.57;29.98;98636.13;4487987;32;20296;-83
2022/07/29 06:12:49;;;;;;;;;;;;;;;30.85;29.68;98640.38;4473973;32;20046;-82
2022/07/29 06:15:15;;;;;;;;;;;;;;;31.00;29.62;98639.25;4488016;32;19980;-83
2022/07/29 06:17:40;;;;;;;;;;;;;;;30.97;29.63;98640.53;4488123;32;20201;-83
2022/07/29 06:20:06;;;;;;;;;;;;;;;31.05;29.50;98648.44;4488070;32;20025;-83
2022/07/29 06:22:31;;;;;;;;;;;;;;;31.28;29.16;98636.97;4473862;32;19983;-82
2022/07/29 06:24:56;;;;;;;;;;;;;;;31.05;29.31;98643.00;4488225;32;20052;-82
2022/07/29 06:27:21;;;;;;;;;;;;;;;30.97;29.78;98643.25;4473809;32;19994;-82
2022/07/29 06:29:47;;;;;;;;;;;;;;;31.20;29.48;98644.59;4488067;32;19983;-82
2022/07/29 06:32:12;;;;;;;;;;;;;;;31.30;29.59;98647.62;4487960;32;19975;-82
2022/07/29 06:34:37;;;;;;;;;;;;;;;31.47;29.24;98642.50;4487974;32;20300;-83
2022/07/29 06:37:09;;;;;;;;;;;;;;;31.58;29.11;98649.91;4487992;32;19983;-82
2022/07/29 06:39:37;;;;;;;;;;;;;;;31.05;30.00;98650.31;4473748;32;20007;-82
2022/07/29 06:42:06;;;;;;;;;;;;;;;31.50;29.53;98656.47;4460394;32;19984;-83
2022/07/29 06:44:33;;;;;;;;;;;;;;;31.52;29.23;98659.00;4473510;32;19972;-82
2022/07/29 06:46:58;;;;;;;;;;;;;;;31.49;29.61;98660.28;4473797;32;20349;-82
2022/07/29 06:49:25;;;;;;;;;;;;;;;31.51;29.74;98666.34;4487663;32;20012;-83
2022/07/29 06:51:51;;;;;;;;;;;;;;;31.27;30.25;98664.41;4473443;32;20006;-83
2022/07/29 06:54:16;;;;;;;;;;;;;;;31.61;29.79;98665.00;4473572;32;20013;-83
2022/07/29 06:56:42;;;;;;;;;;;;;;;31.46;30.48;98662.59;4487925;32;20243;-82
2022/07/29 06:59:08;;;;;;;;;;;;;;;31.30;30.05;98672.94;4487506;32;20015;-83
2022/07/29 07:01:33;;;;;;;;;;;;;;;30.75;30.99;98662.63;4471841;32;20037;-82
2022/07/29 07:03:58;;;;;;;;;;;;;;;31.45;29.86;98661.75;4473661;32;20309;-83
2022/07/29 07:06:24;;;;;;;;;;;;;;;31.71;29.64;98665.31;4487855;32;19975;-83
2022/07/29 07:08:49;;;;;;;;;;;;;;;31.02;30.70;98654.31;4487845;32;20023;-82
2022/07/29 07:11:14;;;;;;;;;;;;;;;31.55;30.00;98659.37;4487756;32;19989;-82
2022/07/29 07:13:39;;;;;;;;;;;;;;;31.59;30.08;98661.66;4487681;32;19968;-83
2022/07/29 07:16:05;;;;;;;;;;;;;;;32.09;29.48;98654.28;4473476;32;19976;-83
2022/07/29 07:18:30;;;;;;;;;;;;;;;32.32;29.08;98656.31;4487680;32;20033;-82
2022/07/29 07:20:56;;;;;;;;;;;;;;;32.16;29.65;98651.47;4487804;32;19979;-83
2022/07/29 07:23:21;;;;;;;;;;;;;;;32.54;28.71;98655.84;4473471;32;20021;-82
2022/07/29 07:25:46;;;;;;;;;;;;;;;32.72;28.28;98650.41;4487603;32;19971;-83
2022/07/29 07:28:12;;;;;;;;;;;;;;;32.53;28.55;98654.19;4486860;32;20239;-82
2022/07/29 07:30:37;;;;;;;;;;;;;;;32.58;28.80;98656.25;4487822;32;19979;-82
2022/07/29 07:33:02;;;;;;;;;;;;;;;32.70;28.06;98655.25;4473387;32;20230;-82
2022/07/29 07:35:28;;;;;;;;;;;;;;;32.81;28.05;98655.53;4473090;32;19991;-83
2022/07/29 07:37:55;;;;;;;;;;;;;;;32.48;28.40;98654.84;4487329;32;19972;-83
2022/07/29 07:40:20;;;;;;;;;;;;;;;32.49;28.91;98648.34;4473089;32;19999;-82
2022/07/29 07:42:45;;;;;;;;;;;;;;;32.33;28.58;98655.25;4487318;32;19971;-83
2022/07/29 07:45:11;;;;;;;;;;;;;;;32.08;29.56;98657.22;4487286;32;19968;-83
2022/07/29 07:47:36;;;;;;;;;;;;;;;32.12;28.99;98645.66;4487259;32;20041;-83
2022/07/29 07:50:03;;;;;;;;;;;;;;;32.02;29.55;98647.22;4473071;32;19995;-83
2022/07/29 07:52:28;;;;;;;;;;;;;;;32.08;29.29;98649.03;4487115;32;20299;-83
2022/07/29 07:54:53;;;;;;;;;;;;;;;31.56;29.86;98649.31;4487106;32;19982;-83
2022/07/29 07:57:18;;;;;;;;;;;;;;;32.13;29.29;98650.03;4487008;32;20019;-82
2022/07/29 07:59:44;;;;;;;;;;;;;;;31.97;29.17;98649.75;4487050;32;20314;-83
2022/07/29 08:02:09;;;;;;;;;;;;;;;31.58;29.98;98646.38;4472912;32;19978;-83
2022/07/29 08:04:35;;;;;;;;;;;;;;;32.09;29.33;98642.56;4487073;32;19971;-82
2022/07/29 08:07:00;;;;;;;;;;;;;;;32.18;29.50;98640.34;4487006;32;19972;-83
2022/07/29 08:09:26;;;;;;;;;;;;;;;32.40;29.16;98643.44;4487178;32;20008;-83
2022/07/29 08:11:51;;;;;;;;;;;;;;;32.38;28.72;98640.94;4472669;32;19968;-82
2022/07/29 08:14:16;;;;;;;;;;;;;;;32.16;29.43;98637.84;4486915;32;20015;-83
2022/07/29 08:16:42;;;;;;;;;;;;;;;31.80;29.48;98644.91;4486949;32;20017;-83
2022/07/29 08:19:08;;;;;;;;;;;;;;;32.14;29.40;98648.12;4472679;32;19987;-82
2022/07/29 08:21:33;;;;;;;;;;;;;;;32.27;29.01;98650.72;4472601;32;19968;-83
2022/07/29 08:26:42;;;;;;;;;;;;;;;31.78;29.97;98643.47;4486888;32;19994;-83
2022/07/29 08:29:07;;;;;;;;;;;;;;;32.40;29.24;98640.72;4486669;32;19988;-82
2022/07/29 08:31:33;;;;;;;;;;;;;;;32.67;28.58;98639.34;4486612;32;20243;-83
2022/07/29 08:33:59;;;;;;;;;;;;;;;32.46;29.06;98637.06;4472294;32;20019;-82
2022/07/29 08:36:25;;;;;;;;;;;;;;;32.52;28.79;98636.16;4486725;32;19976;-83
2022/07/29 08:38:50;;;;;;;;;;;;;;;32.77;28.44;98644.22;4473149;32;20232;-83
2022/07/29 08:41:16;;;;;;;;;;;;;;;32.87;28.16;98635.50;4474308;32;19983;-82
2022/07/29 08:43:41;;;;;;;;;;;;;;;32.72;28.45;98638.63;4474337;32;19981;-82
2022/07/29 08:46:07;;;;;;;;;;;;;;;32.24;29.02;98639.41;4488541;32;20301;-82
2022/07/29 08:48:32;;;;;;;;;;;;;;;31.98;29.58;98638.63;4488662;32;20016;-82
2022/07/29 08:50:57;;;;;;;;;;;;;;;32.54;28.64;98636.75;4474403;32;19990;-83
2022/07/29 08:53:24;;;;;;;;;;;;;;;32.63;29.18;98629.94;4474152;32;20231;-86
2022/07/29 08:55:49;;;;;;;;;;;;;;;32.85;28.56;98626.69;4474216;32;20323;-83
2022/07/29 08:58:15;;;;;;;;;;;;;;;32.76;28.70;98634.41;4474136;32;19998;-82
2022/07/29 09:00:45;;;;;;;;;;;;;;;31.84;29.34;98631.69;4474206;32;20300;-82
2022/07/29 09:03:12;;;;;;;;;;;;;;;32.29;29.14;98628.69;4474204;32;19975;-82
2022/07/29 09:05:37;;;;;;;;;;;;;;;32.15;28.49;98625.28;4474268;32;20263;-82
2022/07/29 09:08:03;;;;;;;;;;;;;;;32.52;28.55;98627.97;4474249;32;19999;-81
2022/07/29 09:10:28;;;;;;;;;;;;;;;32.77;27.93;98621.59;4474039;32;20307;-81
2022/07/29 09:12:56;;;;;;;;;;;;;;;32.86;27.73;98626.47;4474193;32;20007;-81
2022/07/29 09:15:22;;;;;;;;;;;;;;;33.10;27.26;98629.28;4488480;32;19975;-82
2022/07/29 09:17:49;;;;;;;;;;;;;;;33.05;27.12;98627.25;4488243;32;19968;-81
2022/07/29 09:20:15;;;;;;;;;;;;;;;32.88;27.34;98621.63;4488313;32;19987;-82
2022/07/29 09:22:40;;;;;;;;;;;;;;;33.29;26.80;98624.59;4488289;32;20363;-82
2022/07/29 09:25:05;;;;;;;;;;;;;;;33.34;26.83;98623.88;4473908;32;19980;-82
2022/07/29 09:27:31;;;;;;;;;;;;;;;33.19;27.19;98627.06;4488208;32;20242;-82
2022/07/29 09:29:57;;;;;;;;;;;;;;;33.46;26.84;98619.28;4474005;32;20017;-82
2022/07/29 09:32:23;;;;;;;;;;;;;;;33.32;27.29;98618.62;4488247;32;20002;-82
2022/07/29 09:34:48;;;;;;;;;;;;;;;33.30;27.17;98618.91;4488123;32;20224;-82
2022/07/29 09:37:25;;;;;;;;;;;;;;;33.57;26.48;98612.13;4488220;32;19995;-83
2022/07/29 09:39:51;;;;;;;;;;;;;;;33.52;26.46;98607.41;4474003;32;19964;-82
2022/07/29 09:42:16;;;;;;;;;;;;;;;33.68;26.12;98611.34;4473703;32;20575;-84
2022/07/29 09:44:42;;;;;;;;;;;;;;;33.68;25.91;98612.16;4473774;32;19976;-82
2022/07/29 09:47:08;;;;;;;;;;;;;;;33.40;26.07;98610.12;4488229;32;20277;-82
2022/07/29 09:49:34;;;;;;;;;;;;;;;33.68;26.16;98603.97;4488020;32;19978;-83
2022/07/29 09:52:09;;;;;;;;;;;;;;;32.85;26.79;98597.53;4473656;32;20039;-83
2022/07/29 09:54:37;;;;;;;;;;;;;;;32.94;27.31;98598.03;4473873;32;20330;-87
2022/07/29 09:57:04;;;;;;;;;;;;;;;33.39;27.67;98594.78;4474154;32;19991;-88
2022/07/29 09:59:29;;;;;;;;;;;;;;;33.28;26.81;98599.19;4473611;32;19968;-87
2022/07/29 10:01:54;;;;;;;;;;;;;;;33.25;26.74;98596.09;4487958;32;20012;-86
2022/07/29 10:04:19;;;;;;;;;;;;;;;33.53;25.86;98591.84;4488091;32;20006;-87
2022/07/29 10:06:58;;;;;;;;;;;;;;;33.27;25.82;98589.31;4488173;32;19975;-87
2022/07/29 10:09:24;;;;;;;;;;;;;;;33.41;25.54;98595.38;4473791;32;19998;-87
2022/07/29 10:12:02;;;;;;;;;;;;;;;33.62;24.95;98587.69;4487900;32;19993;-87
2022/07/29 10:14:27;;;;;;;;;;;;;;;33.79;24.93;98585.91;4487856;32;19975;-86
2022/07/29 10:16:53;;;;;;;;;;;;;;;33.80;25.10;98584.00;4473614;32;20244;-87
2022/07/29 10:19:19;;;;;;;;;;;;;;;33.93;24.82;98588.38;4460586;32;19968;-88
2022/07/29 10:21:44;;;;;;;;;;;;;;;33.85;24.81;98586.84;4471483;32;19976;-85
2022/07/29 10:24:09;;;;;;;;;;;;;;;33.84;24.81;98574.25;4458561;32;19979;-85
2022/07/29 10:26:36;;;;;;;;;;;;;;;33.82;24.91;98571.78;4486398;32;19980;-87
2022/07/29 10:29:02;;;;;;;;;;;;;;;33.33;25.59;98575.81;4456393;32;19999;-86
2022/07/29 10:31:29;;;;;;;;;;;;;;;33.48;25.79;98579.72;4456515;32;19968;-87
2022/07/29 10:33:55;;;;;;;;;;;;;;;33.91;24.98;98571.41;4456348;32;19988;-85
2022/07/29 10:36:20;;;;;;;;;;;;;;;33.73;25.19;98570.47;4470208;32;19990;-85
2022/07/29 10:38:45;;;;;;;;;;;;;;;33.65;24.70;98570.81;4470649;32;19973;-85
2022/07/29 10:41:30;;;;;;;;;;;;;;;34.01;24.44;98561.50;4470433;32;19992;-85
2022/07/29 10:44:05;;;;;;;;;;;;;;;34.10;23.62;98556.50;4470676;32;20000;-86
2022/07/29 10:46:34;;;;;;;;;;;;;;;34.07;24.33;98557.81;4456281;32;20418;-84
2022/07/29 10:49:12;;;;;;;;;;;;;;;33.76;24.78;98559.06;4470467;32;20119;-86
2022/07/29 10:51:56;;;;;;;;;;;;;;;34.32;24.20;98553.13;4455949;32;20028;-85
2022/07/29 10:57:16;;;;;;;;;;;;;;;34.72;22.17;98550.34;4456364;32;20003;-85
2022/07/29 10:59:45;;;;;;;;;;;;;;;34.56;22.52;98541.00;4470595;32;20037;-85
2022/07/29 11:02:29;;;;;;;;;;;;;;;34.67;22.42;98544.75;4468795;32;20028;-85
2022/07/29 11:04:54;;;;;;;;;;;;;;;34.76;22.60;98535.09;4470324;32;20019;-85
2022/07/29 11:07:20;;;;;;;;;;;;;;;34.98;22.28;98543.41;4470317;32;19975;-84
2022/07/29 11:10:00;;;;;;;;;;;;;;;35.07;22.39;98537.50;4443385;32;19994;-86
2022/07/29 11:12:37;;;;;;;;;;;;;;;34.95;22.70;98538.41;4455932;32;20437;-85
2022/07/29 11:15:06;;;;;;;;;;;;;;;35.09;22.44;98535.34;4470351;32;20037;-86
2022/07/29 11:17:50;;;;;;;;;;;;;;;34.95;22.09;98530.19;4470258;32;19979;-86
2022/07/29 11:20:34;;;;;;;;;;;;;;;34.78;22.66;98534.84;4470450;32;20118;-86
2022/07/29 11:23:00;;;;;;;;;;;;;;;35.36;22.14;98530.84;4470133;32;20319;-85
2022/07/29 11:25:25;;;;;;;;;;;;;;;35.45;21.60;98523.06;4455849;32;20104;-84
2022/07/29 11:27:51;;;;;;;;;;;;;;;35.49;21.90;98532.41;4470088;32;20499;-85
2022/07/29 11:30:16;;;;;;;;;;;;;;;35.53;21.71;98519.88;4470433;32;20056;-85
2022/07/29 11:32:43;;;;;;;;;;;;;;;35.00;22.43;98516.59;4455866;32;19968;-86
2022/07/29 11:35:23;;;;;;;;;;;;;;;35.40;21.96;98510.09;4456110;32;19992;-86
2022/07/29 11:38:07;;;;;;;;;;;;;;;35.28;21.85;98514.03;4455859;32;20006;-85
2022/07/29 11:40:32;;;;;;;;;;;;;;;35.05;22.19;98508.47;4470414;32;20335;-85
2022/07/29 11:42:57;;;;;;;;;;;;;;;35.23;22.25;98518.38;4455726;32;20003;-85
2022/07/29 11:45:27;;;;;;;;;;;;;;;35.21;22.38;98514.19;4470455;32;20345;-87
2022/07/29 11:47:53;;;;;;;;;;;;;;;35.31;22.08;98506.16;4470430;32;20011;-86
2022/07/29 11:50:32;;;;;;;;;;;;;;;35.20;21.82;98505.16;4455846;32;19976;-87
2022/07/29 11:52:58;;;;;;;;;;;;;;;34.28;22.17;98493.44;4470112;32;20041;-87
2022/07/29 11:55:24;;;;;;;;;;;;;;;34.92;21.62;98495.09;4470423;32;19980;-87
2022/07/29 11:57:49;;;;;;;;;;;;;;;34.89;22.51;98498.34;4470078;32;20048;-87
2022/07/29 12:00:33;;;;;;;;;;;;;;;35.00;22.04;98494.72;4470108;32;20342;-87
2022/07/29 12:03:00;;;;;;;;;;;;;;;34.94;21.71;98505.81;4470012;32;19994;-88
2022/07/29 12:05:32;;;;;;;;;;;;;;;34.89;22.06;98498.34;4470015;32;19984;-88
2022/07/29 12:08:04;;;;;;;;;;;;;;;34.81;22.21;98493.31;4470336;32;20035;-87
2022/07/29 12:10:32;;;;;;;;;;;;;;;35.04;21.90;98497.75;4456589;32;19984;-86
2022/07/29 12:12:57;;;;;;;;;;;;;;;35.25;21.57;98487.97;4456073;32;19980;-86
2022/07/29 12:15:23;;;;;;;;;;;;;;;35.26;21.73;98488.81;4470628;32;20003;-86
2022/07/29 12:17:49;;;;;;;;;;;;;;;35.19;21.77;98488.97;4471021;32;19984;-88
2022/07/29 12:20:22;;;;;;;;;;;;;;;34.72;21.85;98494.78;4471332;32;19991;-88
2022/07/29 12:22:49;;;;;;;;;;;;;;;34.70;22.06;98486.81;4457406;32;20304;-88
2022/07/29 12:25:15;;;;;;;;;;;;;;;34.79;21.59;98487.22;4471376;32;20425;-87
2022/07/29 12:27:42;;;;;;;;;;;;;;;34.42;22.15;98482.19;4469077;32;19988;-87
2022/07/29 12:30:09;;;;;;;;;;;;;;;34.48;22.03;98478.50;4455448;32;19987;-86
2022/07/29 12:32:35;;;;;;;;;;;;;;;34.72;21.76;98479.19;4469728;32;19973;-87
2022/07/29 12:35:07;;;;;;;;;;;;;;;34.75;21.41;98472.38;4469745;32;20268;-87
2022/07/29 12:37:37;;;;;;;;;;;;;;;34.67;21.63;98468.16;4465690;32;20003;-86
2022/07/29 12:40:03;;;;;;;;;;;;;;;34.68;21.55;98458.88;4470701;32;19979;-87
2022/07/29 12:42:28;;;;;;;;;;;;;;;34.69;21.52;98459.72;4474178;32;19967;-87
2022/07/29 12:44:53;;;;;;;;;;;;;;;34.76;21.41;98450.25;4470671;32;20029;-86
2022/07/29 12:47:19;;;;;;;;;;;;;;;34.79;21.25;98459.84;4470851;32;20002;-86
2022/07/29 12:49:45;;;;;;;;;;;;;;;34.80;21.22;98445.13;4484951;31;20331;-85
2022/07/29 12:52:25;;;;;;;;;;;;;;;34.42;21.39;98442.03;4484775;31;19980;-86